Carmo do Rio Verde, Brazil
Current Conditions -  °F | °C
As of 3:00 PM on Sunday 21 Dec 2014 (Local Time) from SBAN Reporting Station
Broken Clouds Broken Clouds  
Wind Chill: 24°   Ceiling: 1700
Heat Index: 24°   Visibility: 6mi
Dew Point: 18°   Wind: 3mph
Humidity: 69%   Direction: 320°NW
Pressure: 30.06"   Gusts: NA
Location:  15.35°S, 49.71°W
Report Text: SBAN 211700Z 32003KT 9999 BKN017 FEW020TCU 24/18 Q1018
Loading
Personal Weather Stations






























Interactive Weather Map New forecast layout! Learn more

10-Day Weather Forecast

Advertisements
Track Severe Weather on mobile